createdAt,value
2022-08-14T00:01:54.747Z,22.87
2022-08-14T00:04:35.121Z,22.84
2022-08-14T00:07:06.962Z,22.80
2022-08-14T00:09:56.298Z,22.77
2022-08-14T00:12:24.596Z,22.73
2022-08-14T00:14:55.188Z,22.72
2022-08-14T00:17:23.141Z,22.69
2022-08-14T00:19:51.808Z,22.65
2022-08-14T00:22:22.109Z,22.63
2022-08-14T00:25:08.092Z,22.59
2022-08-14T00:27:37.754Z,22.58
2022-08-14T00:30:08.184Z,22.55
2022-08-14T00:33:01.632Z,22.53
2022-08-14T00:36:34.262Z,22.48
2022-08-14T00:38:13.304Z,22.45
2022-08-14T00:40:40.496Z,22.44
2022-08-14T00:43:13.808Z,22.42
2022-08-14T00:45:42.991Z,22.39
2022-08-14T00:48:34.590Z,22.35
2022-08-14T00:51:05.623Z,22.30
2022-08-14T00:53:32.859Z,22.27
2022-08-14T00:56:00.080Z,22.23
2022-08-14T00:58:33.410Z,22.20
2022-08-14T01:01:08.084Z,22.17
2022-08-14T01:03:38.059Z,22.14
2022-08-14T01:06:09.980Z,22.09
2022-08-14T01:08:51.355Z,22.05
2022-08-14T01:11:24.777Z,22.03
2022-08-14T01:13:56.161Z,22.02
2022-08-14T01:16:31.136Z,22.00
2022-08-14T01:19:19.757Z,22.00
2022-08-14T01:21:52.859Z,21.98
2022-08-14T01:24:34.216Z,21.97
2022-08-14T01:27:04.792Z,21.97
2022-08-14T01:29:59.144Z,21.97
2022-08-14T01:32:24.968Z,21.97
2022-08-14T01:35:19.760Z,21.96
2022-08-14T01:37:46.751Z,21.97
2022-08-14T01:40:25.553Z,21.97
2022-08-14T01:43:02.770Z,21.97
2022-08-14T01:45:31.492Z,21.99
2022-08-14T01:48:13.731Z,21.97
2022-08-14T01:50:44.152Z,21.98
2022-08-14T01:53:12.591Z,21.98
2022-08-14T01:55:41.040Z,21.98
2022-08-14T01:58:20.305Z,22.00
2022-08-14T02:00:55.127Z,22.01
2022-08-14T02:03:30.967Z,22.04
2022-08-14T02:05:59.760Z,22.04
2022-08-14T02:08:34.704Z,22.05
2022-08-14T02:11:22.632Z,22.06
2022-08-14T02:13:52.397Z,22.08
2022-08-14T02:16:26.296Z,22.09
2022-08-14T02:18:58.914Z,22.09
2022-08-14T02:21:27.689Z,22.10
2022-08-14T02:23:57.183Z,22.10
2022-08-14T02:26:29.496Z,22.10
2022-08-14T02:29:08.814Z,22.13
2022-08-14T02:31:43.687Z,22.13
2022-08-14T02:34:31.967Z,22.15
2022-08-14T02:37:09.793Z,22.14
2022-08-14T02:39:43.643Z,22.14
2022-08-14T02:42:14.725Z,22.14
2022-08-14T02:44:49.437Z,22.14
2022-08-14T02:47:20.531Z,22.16
2022-08-14T02:49:50.649Z,22.16
2022-08-14T02:52:56.825Z,22.16
2022-08-14T02:55:19.884Z,22.14
2022-08-14T02:57:51.999Z,22.15
2022-08-14T03:00:32.963Z,22.14
2022-08-14T03:03:02.668Z,22.13
2022-08-14T03:05:37.145Z,22.12
2022-08-14T03:08:15.201Z,22.11
2022-08-14T03:10:48.620Z,22.11
2022-08-14T03:13:19.534Z,22.10
2022-08-14T03:15:56.085Z,22.08
2022-08-14T03:18:31.441Z,22.09
2022-08-14T03:21:02.035Z,22.08
2022-08-14T03:23:38.032Z,22.08
2022-08-14T03:26:12.933Z,22.09
2022-08-14T03:28:51.274Z,22.08
2022-08-14T03:31:25.931Z,22.09
2022-08-14T03:33:54.250Z,22.07
2022-08-14T03:37:39.254Z,22.04
2022-08-14T03:39:24.208Z,22.03
2022-08-14T03:41:54.636Z,22.02
2022-08-14T03:45:19.986Z,22.00
2022-08-14T03:47:11.717Z,22.01
2022-08-14T03:49:42.019Z,21.99
2022-08-14T03:52:17.989Z,21.99
2022-08-14T03:54:59.137Z,21.99
2022-08-14T03:57:32.688Z,21.98
2022-08-14T04:00:03.711Z,21.98
2022-08-14T04:02:37.097Z,21.98
2022-08-14T04:05:16.725Z,21.98
2022-08-14T04:07:49.780Z,21.96
2022-08-14T04:10:32.858Z,21.96
2022-08-14T04:13:06.150Z,21.94
2022-08-14T04:15:40.893Z,21.94
2022-08-14T04:18:21.417Z,21.92
2022-08-14T04:20:54.258Z,21.92
2022-08-14T04:23:23.539Z,21.95
2022-08-14T04:25:54.881Z,21.96
2022-08-14T04:29:06.834Z,21.97
2022-08-14T04:31:09.740Z,22.00
2022-08-14T04:33:38.189Z,22.02
2022-08-14T04:36:06.243Z,22.05
2022-08-14T04:38:55.094Z,22.08
2022-08-14T04:41:43.342Z,22.09
2022-08-14T04:44:13.365Z,22.14
2022-08-14T04:47:12.601Z,22.17
2022-08-14T04:49:56.692Z,22.20
2022-08-14T04:52:25.445Z,22.27
2022-08-14T04:54:54.470Z,22.28
2022-08-14T04:57:22.884Z,22.27
2022-08-14T04:59:52.721Z,22.32
2022-08-14T05:02:24.471Z,22.34
2022-08-14T05:04:58.592Z,22.39
2022-08-14T05:07:46.883Z,22.46
2022-08-14T05:10:16.768Z,22.52
2022-08-14T05:13:12.633Z,22.59
2022-08-14T05:15:39.685Z,22.64
2022-08-14T05:18:17.222Z,22.71
2022-08-14T05:21:54.460Z,22.77
2022-08-14T05:23:37.800Z,22.85
2022-08-14T05:26:17.170Z,22.92
2022-08-14T05:28:45.949Z,23.03
2022-08-14T05:31:20.529Z,23.12
2022-08-14T05:33:56.388Z,23.27
2022-08-14T05:36:25.652Z,23.40
2022-08-14T05:38:55.315Z,23.52
2022-08-14T05:41:22.716Z,23.56
2022-08-14T05:43:51.199Z,23.61
2022-08-14T05:46:43.859Z,23.63
2022-08-14T05:49:14.378Z,23.65
2022-08-14T05:51:41.606Z,23.77
2022-08-14T05:54:13.581Z,23.80
2022-08-14T05:56:54.326Z,23.92
2022-08-14T05:59:36.390Z,24.04
2022-08-14T06:02:10.736Z,24.17
2022-08-14T06:04:39.354Z,24.21
2022-08-14T06:07:06.953Z,24.28
2022-08-14T06:09:35.931Z,24.34
2022-08-14T06:12:09.552Z,24.40
2022-08-14T06:14:37.409Z,24.52
2022-08-14T06:17:06.370Z,24.59
2022-08-14T06:19:33.573Z,24.66
2022-08-14T06:22:02.170Z,24.74
2022-08-14T06:24:30.598Z,24.81
2022-08-14T06:27:06.120Z,24.86
2022-08-14T06:29:35.233Z,24.86
2022-08-14T06:32:37.328Z,24.81
2022-08-14T06:35:04.335Z,24.91
2022-08-14T06:37:47.724Z,24.98
2022-08-14T06:40:26.695Z,25.05
2022-08-14T06:43:00.225Z,25.14
2022-08-14T06:45:34.130Z,25.14
2022-08-14T06:48:01.293Z,25.16
2022-08-14T06:50:30.439Z,25.23
2022-08-14T06:52:58.825Z,25.28
2022-08-14T06:55:28.169Z,25.39
2022-08-14T06:57:57.809Z,25.49
2022-08-14T07:00:31.231Z,25.59
2022-08-14T07:03:19.111Z,25.65
2022-08-14T07:05:57.942Z,25.75
2022-08-14T07:08:29.604Z,25.83
2022-08-14T07:11:00.969Z,25.97
2022-08-14T07:13:30.574Z,26.09
2022-08-14T07:15:59.016Z,26.14
2022-08-14T07:18:31.124Z,26.21
2022-08-14T07:20:59.811Z,26.27
2022-08-14T07:23:27.565Z,26.38
2022-08-14T07:25:58.209Z,26.49
2022-08-14T07:28:28.791Z,26.62
2022-08-14T07:31:05.121Z,26.71
2022-08-14T07:33:45.592Z,26.80
2022-08-14T07:36:26.530Z,26.83
2022-08-14T07:39:00.911Z,26.94
2022-08-14T07:41:33.876Z,27.00
2022-08-14T07:44:29.308Z,27.14
2022-08-14T07:46:50.978Z,27.20
2022-08-14T07:49:19.290Z,27.40
2022-08-14T07:51:49.336Z,27.48
2022-08-14T07:54:23.681Z,27.62
2022-08-14T07:57:06.549Z,27.70
2022-08-14T07:59:43.764Z,27.69
2022-08-14T08:02:19.097Z,27.74
2022-08-14T08:04:54.447Z,27.87
2022-08-14T08:07:29.953Z,27.98
2022-08-14T08:09:58.455Z,28.08
2022-08-14T08:12:30.866Z,28.22
2022-08-14T08:15:03.087Z,28.37
2022-08-14T08:17:38.938Z,28.50
2022-08-14T08:20:15.641Z,28.68
2022-08-14T08:22:48.446Z,28.62
2022-08-14T08:25:18.829Z,28.76
2022-08-14T08:28:21.800Z,28.85
2022-08-14T08:31:00.084Z,28.87
2022-08-14T08:33:37.254Z,28.99
2022-08-14T08:36:08.182Z,29.26
2022-08-14T08:39:14.803Z,29.42
2022-08-14T08:41:27.936Z,29.64
2022-08-14T08:44:05.780Z,29.83
2022-08-14T08:46:44.725Z,29.94
2022-08-14T08:49:15.422Z,29.97
2022-08-14T08:51:42.997Z,29.97
2022-08-14T08:54:18.362Z,29.96
2022-08-14T08:56:48.525Z,30.04
2022-08-14T08:59:34.202Z,30.08
2022-08-14T09:02:10.342Z,30.01
2022-08-14T09:04:52.871Z,30.13
2022-08-14T09:07:27.975Z,30.15
2022-08-14T09:10:00.145Z,30.21
2022-08-14T09:12:31.785Z,30.33
2022-08-14T09:15:01.824Z,30.50
2022-08-14T09:17:29.095Z,30.52
2022-08-14T09:19:56.657Z,30.67
2022-08-14T09:22:35.427Z,30.62
2022-08-14T09:25:07.040Z,30.79
2022-08-14T09:27:36.647Z,30.93
2022-08-14T09:30:30.645Z,30.96
2022-08-14T09:33:10.609Z,31.21
2022-08-14T09:35:45.870Z,31.44
2022-08-14T09:38:26.156Z,31.44
2022-08-14T09:41:13.631Z,31.56
2022-08-14T09:43:43.999Z,31.68
2022-08-14T09:46:16.995Z,31.71
2022-08-14T09:49:04.574Z,31.78
2022-08-14T09:51:32.740Z,31.83
2022-08-14T09:54:12.568Z,31.99
2022-08-14T09:56:47.056Z,32.03
2022-08-14T09:59:28.228Z,32.22
2022-08-14T10:01:59.513Z,32.32
2022-08-14T10:04:36.681Z,32.42
2022-08-14T10:07:05.685Z,32.72
2022-08-14T10:09:34.873Z,32.98
2022-08-14T10:12:04.444Z,33.19
2022-08-14T10:14:36.608Z,33.38
2022-08-14T10:17:06.334Z,33.44
2022-08-14T10:19:35.999Z,33.43
2022-08-14T10:23:13.598Z,33.53
2022-08-14T10:25:00.018Z,33.37
2022-08-14T10:27:28.896Z,33.46
2022-08-14T10:30:01.947Z,33.67
2022-08-14T10:32:40.195Z,33.89
2022-08-14T10:35:16.809Z,34.02
2022-08-14T10:37:50.098Z,34.05
2022-08-14T10:40:37.677Z,33.98
2022-08-14T10:43:26.034Z,33.92
2022-08-14T10:45:59.968Z,33.87
2022-08-14T10:49:00.821Z,33.79
2022-08-14T10:51:34.053Z,33.79
2022-08-14T10:54:35.112Z,33.89
2022-08-14T10:57:12.262Z,33.93
2022-08-14T10:59:50.489Z,33.98
2022-08-14T11:02:36.192Z,33.99
2022-08-14T11:05:13.068Z,33.97
2022-08-14T11:07:50.932Z,33.99
2022-08-14T11:10:39.670Z,34.10
2022-08-14T11:13:15.451Z,34.14
2022-08-14T11:15:43.143Z,34.11
2022-08-14T11:18:12.100Z,34.15
2022-08-14T11:20:54.466Z,34.18
2022-08-14T11:23:28.386Z,34.20
2022-08-14T11:26:07.069Z,34.27
2022-08-14T11:28:48.062Z,34.33
2022-08-14T11:31:25.583Z,34.32
2022-08-14T11:33:55.286Z,34.36
2022-08-14T11:37:02.007Z,34.51
2022-08-14T11:39:34.508Z,34.68
2022-08-14T11:42:57.236Z,34.78
2022-08-14T11:44:56.634Z,34.95
2022-08-14T11:47:27.202Z,35.02
2022-08-14T11:50:13.246Z,35.14
2022-08-14T11:52:40.696Z,35.11
2022-08-14T11:55:11.572Z,35.22
2022-08-14T11:57:40.536Z,35.41
2022-08-14T12:00:19.738Z,35.61
2022-08-14T12:03:03.213Z,35.68
2022-08-14T12:05:38.768Z,35.87
2022-08-14T12:08:11.106Z,36.07
2022-08-14T12:10:42.689Z,36.23
2022-08-14T12:13:13.890Z,36.35
2022-08-14T12:15:45.320Z,36.42
2022-08-14T12:18:19.770Z,36.50
2022-08-14T12:20:52.209Z,36.64
2022-08-14T12:23:23.095Z,36.75
2022-08-14T12:26:01.478Z,37.05
2022-08-14T12:28:59.482Z,37.29
2022-08-14T12:31:26.202Z,37.60
2022-08-14T12:33:59.692Z,37.85
2022-08-14T12:36:30.928Z,37.73
2022-08-14T12:38:58.399Z,37.55
2022-08-14T12:41:36.985Z,37.53
2022-08-14T12:44:08.447Z,37.34
2022-08-14T12:46:37.776Z,37.21
2022-08-14T12:49:16.232Z,36.97
2022-08-14T12:51:44.693Z,37.12
2022-08-14T12:54:27.646Z,37.43
2022-08-14T12:57:09.040Z,37.90
2022-08-14T12:59:42.630Z,38.25
2022-08-14T13:02:26.608Z,38.73
2022-08-14T13:04:55.733Z,39.04
2022-08-14T13:07:24.145Z,39.27
2022-08-14T13:09:58.365Z,39.03
2022-08-14T13:12:31.820Z,38.56
2022-08-14T13:15:08.840Z,37.96
2022-08-14T13:17:48.106Z,38.15
2022-08-14T13:20:23.478Z,38.48
2022-08-14T13:22:54.894Z,38.20
2022-08-14T13:25:25.479Z,37.91
2022-08-14T13:27:57.592Z,37.79
2022-08-14T13:30:26.204Z,37.44
2022-08-14T13:32:54.661Z,37.60
2022-08-14T13:35:25.391Z,38.44
2022-08-14T13:37:53.704Z,38.90
2022-08-14T13:40:26.045Z,39.21
2022-08-14T13:42:55.203Z,39.81
2022-08-14T13:45:59.412Z,39.97
2022-08-14T13:48:32.524Z,39.65
2022-08-14T13:51:04.750Z,40.20
2022-08-14T13:53:37.967Z,40.99
2022-08-14T13:56:14.602Z,42.09
2022-08-14T13:58:47.040Z,43.52
2022-08-14T14:01:16.190Z,44.94
2022-08-14T14:03:46.651Z,46.49
2022-08-14T14:06:16.168Z,47.36
2022-08-14T14:08:49.036Z,47.77
2022-08-14T14:11:20.882Z,49.02
2022-08-14T14:13:48.515Z,50.49
2022-08-14T14:16:26.208Z,52.31
2022-08-14T14:19:08.986Z,53.90
2022-08-14T14:21:38.137Z,54.79
2022-08-14T14:24:08.484Z,55.81
2022-08-14T14:26:47.164Z,57.51
2022-08-14T14:29:15.001Z,58.02
2022-08-14T14:31:48.069Z,58.26
2022-08-14T14:34:29.386Z,57.51
2022-08-14T14:37:02.597Z,58.66
2022-08-14T14:39:35.190Z,58.35
2022-08-14T14:42:08.057Z,58.19
2022-08-14T14:44:40.329Z,57.85
2022-08-14T14:47:12.320Z,59.22
2022-08-14T14:49:51.383Z,60.09
2022-08-14T14:52:27.734Z,60.46
2022-08-14T14:54:59.142Z,59.40
2022-08-14T14:57:34.988Z,59.54
2022-08-14T15:00:12.631Z,58.92
2022-08-14T15:02:45.069Z,60.12
2022-08-14T15:05:14.156Z,60.91
2022-08-14T15:07:42.450Z,61.17
2022-08-14T15:10:28.055Z,61.55
2022-08-14T15:13:03.437Z,61.53
2022-08-14T15:15:32.589Z,60.96
2022-08-14T15:18:01.053Z,61.33
2022-08-14T15:20:30.819Z,60.50
2022-08-14T15:23:12.059Z,60.17
2022-08-14T15:25:40.886Z,60.50
2022-08-14T15:28:11.469Z,59.73
2022-08-14T15:30:41.446Z,60.04
2022-08-14T15:33:09.904Z,60.71
2022-08-14T15:35:37.127Z,60.37
2022-08-14T15:38:12.113Z,60.59
2022-08-14T15:40:51.719Z,61.33
2022-08-14T15:43:25.395Z,61.43
2022-08-14T15:45:56.162Z,61.57
2022-08-14T15:48:23.518Z,60.45
2022-08-14T15:50:50.800Z,60.85
2022-08-14T15:53:22.119Z,59.28
2022-08-14T15:55:50.466Z,60.44
2022-08-14T15:58:24.250Z,59.34
2022-08-14T16:01:12.749Z,59.08
2022-08-14T16:03:42.435Z,59.35
2022-08-14T16:06:17.597Z,59.65
2022-08-14T16:08:46.825Z,59.42
2022-08-14T16:11:17.914Z,59.19
2022-08-14T16:13:47.761Z,59.79
2022-08-14T16:16:48.142Z,58.69
2022-08-14T16:19:10.173Z,58.13
2022-08-14T16:21:39.490Z,58.45
2022-08-14T16:24:08.223Z,57.11
2022-08-14T16:27:00.441Z,55.91
2022-08-14T16:29:34.471Z,52.85
2022-08-14T16:32:33.605Z,48.71
2022-08-14T16:34:54.734Z,45.85
2022-08-14T16:37:30.915Z,44.18
2022-08-14T16:40:01.656Z,42.62
2022-08-14T16:42:38.640Z,41.60
2022-08-14T16:45:24.041Z,40.81
2022-08-14T16:47:51.144Z,39.95
2022-08-14T16:50:42.993Z,39.47
2022-08-14T16:53:07.446Z,38.77
2022-08-14T16:55:53.296Z,38.25
2022-08-14T16:58:30.181Z,37.56
2022-08-14T17:01:23.016Z,37.11
2022-08-14T17:04:09.666Z,36.72
2022-08-14T17:06:45.896Z,36.37
2022-08-14T17:09:24.047Z,36.03
2022-08-14T17:12:35.221Z,35.52
2022-08-14T17:15:10.642Z,35.26
2022-08-14T17:17:40.816Z,34.96
2022-08-14T17:20:53.769Z,34.73
2022-08-14T17:23:11.149Z,34.51
2022-08-14T17:25:39.028Z,34.35
2022-08-14T17:28:50.128Z,34.10
2022-08-14T17:31:00.260Z,33.84
2022-08-14T17:33:40.802Z,33.53
2022-08-14T17:36:20.750Z,33.25
2022-08-14T17:39:06.819Z,33.04
2022-08-14T17:41:43.580Z,32.86
2022-08-14T17:44:45.666Z,32.68
2022-08-14T17:47:18.351Z,32.40
2022-08-14T17:49:52.112Z,32.20
2022-08-14T17:52:34.973Z,32.03
2022-08-14T17:56:00.363Z,31.95
2022-08-14T17:57:58.653Z,31.80
2022-08-14T18:00:26.283Z,31.64
2022-08-14T18:02:54.444Z,31.48
2022-08-14T18:06:07.603Z,31.40
2022-08-14T18:08:32.218Z,31.25
2022-08-14T18:11:00.052Z,31.14
2022-08-14T18:13:50.831Z,31.05
2022-08-14T18:16:19.855Z,30.92
2022-08-14T18:18:48.288Z,30.76
2022-08-14T18:21:43.050Z,30.57
2022-08-14T18:24:02.699Z,30.44
2022-08-14T18:26:36.826Z,30.29
2022-08-14T18:29:09.901Z,30.12
2022-08-14T18:31:44.020Z,29.96
2022-08-14T18:34:32.102Z,29.82
2022-08-14T18:37:18.342Z,29.66
2022-08-14T18:40:01.418Z,29.55
2022-08-14T18:42:40.872Z,29.46
2022-08-14T18:45:34.381Z,29.36
2022-08-14T18:48:18.063Z,29.23
2022-08-14T18:51:05.308Z,29.16
2022-08-14T18:53:59.627Z,29.08
2022-08-14T18:56:58.479Z,29.00
2022-08-14T18:59:43.353Z,28.97
2022-08-14T19:02:30.601Z,28.91
2022-08-14T19:05:02.821Z,28.87
2022-08-14T19:07:33.436Z,28.82
2022-08-14T19:10:10.197Z,28.77
2022-08-14T19:12:52.577Z,28.72
2022-08-14T19:15:26.008Z,28.67
2022-08-14T19:18:14.019Z,28.62
2022-08-14T19:21:13.231Z,28.55
2022-08-14T19:23:44.127Z,28.48
2022-08-14T19:26:35.252Z,28.40
2022-08-14T19:29:37.785Z,28.33
2022-08-14T19:32:36.577Z,28.27
2022-08-14T19:35:49.168Z,28.18
2022-08-14T19:38:44.808Z,28.12
2022-08-14T19:41:17.622Z,28.08
2022-08-14T19:43:52.260Z,28.06
2022-08-14T19:46:37.870Z,28.02
2022-08-14T19:49:06.988Z,28.00
2022-08-14T19:51:46.932Z,27.94
2022-08-14T19:54:16.211Z,27.88
2022-08-14T19:56:45.147Z,27.82
2022-08-14T19:59:18.564Z,27.77
2022-08-14T20:01:50.561Z,27.74
2022-08-14T20:04:47.527Z,27.68
2022-08-14T20:08:09.132Z,27.63
2022-08-14T20:11:05.012Z,27.54
2022-08-14T20:13:38.510Z,27.46
2022-08-14T20:16:12.359Z,27.39
2022-08-14T20:18:49.568Z,27.31
2022-08-14T20:21:18.343Z,27.23
2022-08-14T20:23:48.276Z,27.16
2022-08-14T20:26:31.453Z,27.08
2022-08-14T20:29:05.073Z,27.00
2022-08-14T20:31:37.183Z,26.93
2022-08-14T20:34:24.479Z,26.87
2022-08-14T20:37:09.562Z,26.76
2022-08-14T20:39:39.954Z,26.70
2022-08-14T20:42:34.242Z,26.67
2022-08-14T20:45:21.538Z,26.61
2022-08-14T20:47:56.446Z,26.57
2022-08-14T20:50:28.882Z,26.53
2022-08-14T20:53:00.765Z,26.51
2022-08-14T20:55:41.626Z,26.50
2022-08-14T20:58:43.245Z,26.49
2022-08-14T21:01:13.774Z,26.44
2022-08-14T21:03:57.036Z,26.41
2022-08-14T21:07:22.662Z,26.41
2022-08-14T21:10:03.181Z,26.38
2022-08-14T21:12:33.670Z,26.34
2022-08-14T21:15:01.212Z,26.30
2022-08-14T21:17:29.548Z,26.25
2022-08-14T21:19:57.183Z,26.22
2022-08-14T21:22:26.728Z,26.17
2022-08-14T21:25:01.642Z,26.14
2022-08-14T21:27:45.985Z,26.12
2022-08-14T21:30:21.161Z,26.08
2022-08-14T21:33:08.998Z,26.07
2022-08-14T21:35:45.498Z,26.05
2022-08-14T21:38:17.886Z,26.00
2022-08-14T21:40:49.064Z,25.98
2022-08-14T21:43:23.197Z,25.95
2022-08-14T21:45:58.180Z,25.90
2022-08-14T21:48:31.393Z,25.86
2022-08-14T21:51:52.499Z,25.82
2022-08-14T21:53:59.190Z,25.78
2022-08-14T21:56:38.348Z,25.74
2022-08-14T21:59:17.957Z,25.70
2022-08-14T22:02:01.860Z,25.68
2022-08-14T22:04:33.705Z,25.64
2022-08-14T22:07:07.419Z,25.61
2022-08-14T22:09:36.649Z,25.59
2022-08-14T22:12:09.549Z,25.56
2022-08-14T22:14:43.458Z,25.55
2022-08-14T22:17:16.508Z,25.53
2022-08-14T22:19:55.068Z,25.47
2022-08-14T22:22:25.941Z,25.39
2022-08-14T22:24:59.691Z,25.38
2022-08-14T22:27:30.029Z,25.32
2022-08-14T22:30:01.143Z,25.29
2022-08-14T22:32:56.773Z,25.25
2022-08-14T22:35:16.504Z,25.20
2022-08-14T22:37:44.612Z,25.14
2022-08-14T22:40:54.868Z,25.11
2022-08-14T22:43:08.301Z,25.05
2022-08-14T22:45:37.780Z,25.02
2022-08-14T22:48:11.192Z,24.96
2022-08-14T22:50:53.416Z,24.92
2022-08-14T22:53:21.829Z,24.86
2022-08-14T22:55:52.040Z,24.82
2022-08-14T22:58:31.578Z,24.76
2022-08-14T23:01:12.023Z,24.71
2022-08-14T23:03:42.181Z,24.66
2022-08-14T23:07:02.736Z,24.62
2022-08-14T23:09:35.504Z,24.57
2022-08-14T23:11:46.727Z,24.54
2022-08-14T23:14:14.972Z,24.48
2022-08-14T23:16:57.085Z,24.43
2022-08-14T23:19:25.720Z,24.39
2022-08-14T23:22:01.334Z,24.34
2022-08-14T23:24:28.926Z,24.30
2022-08-14T23:26:57.834Z,24.27
2022-08-14T23:29:24.994Z,24.25
2022-08-14T23:31:52.640Z,24.23
2022-08-14T23:34:22.221Z,24.20
2022-08-14T23:36:55.355Z,24.17
2022-08-14T23:39:30.164Z,24.14
2022-08-14T23:42:02.340Z,24.09
2022-08-14T23:44:35.112Z,24.06
2022-08-14T23:47:11.911Z,24.04
2022-08-14T23:49:59.795Z,23.99
2022-08-14T23:52:55.892Z,23.96
2022-08-14T23:55:17.341Z,23.93
2022-08-14T23:57:57.679Z,23.90
